createdAt,value
2022-11-03T00:02:21.336Z,11.70
2022-11-03T00:04:50.159Z,11.43
2022-11-03T00:07:23.421Z,11.29
2022-11-03T00:09:52.020Z,11.23
2022-11-03T00:12:20.870Z,11.11
2022-11-03T00:14:49.599Z,11.06
2022-11-03T00:17:18.254Z,11.09
2022-11-03T00:19:46.947Z,11.02
2022-11-03T00:22:15.601Z,11.11
2022-11-03T00:24:44.413Z,11.15
2022-11-03T00:27:13.153Z,11.06
2022-11-03T00:29:40.952Z,10.96
2022-11-03T00:32:09.643Z,10.94
2022-11-03T00:34:37.450Z,10.95
2022-11-03T00:37:06.085Z,10.98
2022-11-03T00:39:37.909Z,10.97
2022-11-03T00:42:07.928Z,11.02
2022-11-03T00:44:36.599Z,11.01
2022-11-03T00:47:04.402Z,10.88
2022-11-03T00:49:33.101Z,10.82
2022-11-03T00:52:01.817Z,10.69
2022-11-03T00:54:29.518Z,10.72
2022-11-03T00:56:57.493Z,10.76
2022-11-03T00:59:45.054Z,10.51
2022-11-03T01:02:15.434Z,10.50
2022-11-03T01:05:02.699Z,10.26
2022-11-03T01:07:31.382Z,10.36
2022-11-03T01:10:00.047Z,10.43
2022-11-03T01:12:28.788Z,10.55
2022-11-03T01:14:56.523Z,10.54
2022-11-03T01:17:29.079Z,10.54
2022-11-03T01:19:57.233Z,10.38
2022-11-03T01:22:25.897Z,10.23
2022-11-03T01:24:54.615Z,10.23
2022-11-03T01:27:26.450Z,10.04
2022-11-03T01:29:55.110Z,9.95
2022-11-03T01:32:23.807Z,9.89
2022-11-03T01:34:51.548Z,9.80
2022-11-03T01:37:20.252Z,9.82
2022-11-03T01:39:48.032Z,9.87
2022-11-03T01:42:17.754Z,10.02
2022-11-03T01:44:50.264Z,10.08
2022-11-03T01:47:33.441Z,9.96
2022-11-03T01:50:17.304Z,10.23
2022-11-03T01:52:56.535Z,10.31
2022-11-03T01:55:35.895Z,10.28
2022-11-03T01:58:35.025Z,10.37
2022-11-03T02:01:03.691Z,10.18
2022-11-03T02:03:42.986Z,10.14
2022-11-03T02:06:15.485Z,9.96
2022-11-03T02:08:54.819Z,10.05
2022-11-03T02:11:42.539Z,9.75
2022-11-03T02:14:16.498Z,9.50
2022-11-03T02:16:56.420Z,9.35
2022-11-03T02:19:59.125Z,9.28
2022-11-03T02:22:55.556Z,9.05
2022-11-03T02:25:35.158Z,8.98
2022-11-03T02:28:05.659Z,8.95
2022-11-03T02:31:14.688Z,8.88
2022-11-03T02:34:06.867Z,8.96
2022-11-03T02:36:47.903Z,9.21
2022-11-03T02:39:30.424Z,9.54
2022-11-03T02:42:01.725Z,9.67
2022-11-03T02:44:35.117Z,9.75
2022-11-03T02:47:13.253Z,9.59
2022-11-03T02:49:51.057Z,9.49
2022-11-03T02:52:41.224Z,9.37
2022-11-03T02:56:01.546Z,9.30
2022-11-03T02:59:02.098Z,9.44
2022-11-03T03:01:47.717Z,9.38
2022-11-03T03:04:44.198Z,9.36
2022-11-03T03:07:21.387Z,9.36
2022-11-03T03:10:12.455Z,9.32
2022-11-03T03:12:48.787Z,9.56
2022-11-03T03:15:19.244Z,9.51
2022-11-03T03:18:15.364Z,9.41
2022-11-03T03:20:57.951Z,9.39
2022-11-03T03:23:36.526Z,9.14
2022-11-03T03:26:41.795Z,8.80
2022-11-03T03:29:43.698Z,8.50
2022-11-03T03:32:23.972Z,8.36
2022-11-03T03:34:55.653Z,8.16
2022-11-03T03:37:28.193Z,8.27
2022-11-03T03:40:04.147Z,8.41
2022-11-03T03:42:35.916Z,8.58
2022-11-03T03:45:07.104Z,8.38
2022-11-03T03:47:36.173Z,8.32
2022-11-03T03:50:06.203Z,8.03
2022-11-03T03:52:37.159Z,7.93
2022-11-03T03:55:18.856Z,7.96
2022-11-03T03:57:46.606Z,7.84
2022-11-03T04:00:18.146Z,7.75
2022-11-03T04:02:46.715Z,7.91
2022-11-03T04:05:14.654Z,7.66
2022-11-03T04:07:47.256Z,7.70
2022-11-03T04:10:18.414Z,7.68
2022-11-03T04:13:06.217Z,7.79
2022-11-03T04:16:07.327Z,7.71
2022-11-03T04:18:53.434Z,7.61
2022-11-03T04:21:40.641Z,7.69
2022-11-03T04:24:09.327Z,7.81
2022-11-03T04:26:37.087Z,7.58
2022-11-03T04:29:10.059Z,7.40
2022-11-03T04:31:38.148Z,7.59
2022-11-03T04:34:12.295Z,7.67
2022-11-03T04:36:40.932Z,7.98
2022-11-03T04:39:20.865Z,8.12
2022-11-03T04:41:49.670Z,8.25
2022-11-03T04:44:18.304Z,8.30
2022-11-03T04:46:47.254Z,8.27
2022-11-03T04:49:23.616Z,8.29
2022-11-03T04:51:53.021Z,8.37
2022-11-03T04:54:24.386Z,8.29
2022-11-03T04:56:53.934Z,8.36
2022-11-03T04:59:22.588Z,8.33
2022-11-03T05:01:52.539Z,8.23
2022-11-03T05:04:21.343Z,8.20
2022-11-03T05:06:54.434Z,8.02
2022-11-03T05:09:32.654Z,8.01
2022-11-03T05:12:05.537Z,7.91
2022-11-03T05:14:35.298Z,7.98
2022-11-03T05:17:24.149Z,7.93
2022-11-03T05:20:01.828Z,8.05
2022-11-03T05:22:36.647Z,8.05
2022-11-03T05:25:45.888Z,8.04
2022-11-03T05:28:34.046Z,8.15
2022-11-03T05:31:26.455Z,8.22
2022-11-03T05:34:21.266Z,8.31
2022-11-03T05:36:49.943Z,8.43
2022-11-03T05:39:41.283Z,8.54
2022-11-03T05:42:40.297Z,8.51
2022-11-03T05:45:33.522Z,8.52
2022-11-03T05:48:13.333Z,8.43
2022-11-03T05:50:43.670Z,8.55
2022-11-03T05:53:36.115Z,8.74
2022-11-03T05:56:12.905Z,8.82
2022-11-03T05:58:44.592Z,8.91
2022-11-03T06:01:37.886Z,8.93
2022-11-03T06:04:37.362Z,8.91
2022-11-03T06:07:26.636Z,8.89
2022-11-03T06:09:56.849Z,8.84
2022-11-03T06:12:27.308Z,9.01
2022-11-03T06:14:56.103Z,9.17
2022-11-03T06:17:28.570Z,9.22
2022-11-03T06:20:01.471Z,9.24
2022-11-03T06:22:41.625Z,9.26
2022-11-03T06:25:36.670Z,9.50
2022-11-03T06:28:12.511Z,9.60
2022-11-03T06:33:36.487Z,9.72
2022-11-03T06:36:23.025Z,9.69
2022-11-03T06:39:01.806Z,9.68
2022-11-03T06:41:33.525Z,9.66
2022-11-03T06:44:20.658Z,9.70
2022-11-03T06:46:49.349Z,9.75
2022-11-03T06:49:35.895Z,9.66
2022-11-03T06:52:40.485Z,9.77
2022-11-03T06:55:15.780Z,9.69
2022-11-03T06:57:49.423Z,9.69
2022-11-03T07:00:38.573Z,9.74
2022-11-03T07:03:28.537Z,9.60
2022-11-03T07:06:15.775Z,9.62
2022-11-03T07:08:55.532Z,9.65
2022-11-03T07:11:28.753Z,9.62
2022-11-03T07:14:16.190Z,9.64
2022-11-03T07:17:23.355Z,9.55
2022-11-03T07:19:53.335Z,9.68
2022-11-03T07:22:28.260Z,9.81
2022-11-03T07:25:03.960Z,9.83
2022-11-03T07:27:41.227Z,9.82
2022-11-03T07:30:34.434Z,9.76
2022-11-03T07:33:18.755Z,9.87
2022-11-03T07:36:20.261Z,9.84
2022-11-03T07:38:42.790Z,9.77
2022-11-03T07:41:21.889Z,9.76
2022-11-03T07:43:59.568Z,9.93
2022-11-03T07:46:29.554Z,9.82
2022-11-03T07:49:03.782Z,9.43
2022-11-03T07:51:38.219Z,9.69
2022-11-03T07:54:32.679Z,9.85
2022-11-03T07:57:31.326Z,9.92
2022-11-03T08:00:21.093Z,9.74
2022-11-03T08:03:00.967Z,9.85
2022-11-03T08:05:30.548Z,9.84
2022-11-03T08:08:00.080Z,9.95
2022-11-03T08:10:29.863Z,9.86
2022-11-03T08:12:59.739Z,9.93
2022-11-03T08:15:32.199Z,10.00
2022-11-03T08:18:01.768Z,9.86
2022-11-03T08:20:31.296Z,9.98
2022-11-03T08:23:26.982Z,10.02
2022-11-03T08:25:50.281Z,9.97
2022-11-03T08:28:19.871Z,10.07
2022-11-03T08:30:50.849Z,10.22
2022-11-03T08:33:20.591Z,10.21
2022-11-03T08:35:50.221Z,10.32
2022-11-03T08:38:19.826Z,10.38
2022-11-03T08:40:54.321Z,10.37
2022-11-03T08:43:25.639Z,10.41
2022-11-03T08:45:55.559Z,10.46
2022-11-03T08:48:27.890Z,10.69
2022-11-03T08:50:57.472Z,10.65
2022-11-03T08:53:28.050Z,10.60
2022-11-03T08:55:57.678Z,10.73
2022-11-03T08:58:27.318Z,10.66
2022-11-03T09:00:56.801Z,10.59
2022-11-03T09:03:26.435Z,10.54
2022-11-03T09:05:55.172Z,10.43
2022-11-03T09:11:14.105Z,10.66
2022-11-03T09:13:43.680Z,10.66
2022-11-03T09:16:13.146Z,10.51
2022-11-03T09:18:42.727Z,10.70
2022-11-03T09:21:12.352Z,10.86
2022-11-03T09:23:41.936Z,10.86
2022-11-03T09:26:11.397Z,10.94
2022-11-03T09:28:40.994Z,10.63
2022-11-03T09:31:10.564Z,10.71
2022-11-03T09:33:40.137Z,10.92
2022-11-03T09:36:09.997Z,10.86
2022-11-03T09:38:39.490Z,10.96
2022-11-03T09:41:18.761Z,11.01
2022-11-03T09:43:59.291Z,10.85
2022-11-03T09:46:30.887Z,11.08
2022-11-03T09:49:00.706Z,10.97
2022-11-03T09:51:30.712Z,11.12
2022-11-03T09:54:05.081Z,11.28
2022-11-03T09:56:37.749Z,11.17
2022-11-03T09:59:23.389Z,11.23
2022-11-03T10:01:54.973Z,11.22
2022-11-03T10:04:29.490Z,11.21
2022-11-03T10:07:00.110Z,11.32
2022-11-03T10:09:30.563Z,11.51
2022-11-03T10:12:00.255Z,11.42
2022-11-03T10:14:29.821Z,11.41
2022-11-03T10:17:00.718Z,11.37
2022-11-03T10:19:31.272Z,11.47
2022-11-03T10:22:00.886Z,11.44
2022-11-03T10:24:30.482Z,11.41
2022-11-03T10:26:59.918Z,11.47
2022-11-03T10:29:31.589Z,11.41
2022-11-03T10:32:03.287Z,11.50
2022-11-03T10:34:41.947Z,11.70
2022-11-03T10:37:23.278Z,11.69
2022-11-03T10:39:58.038Z,11.42
2022-11-03T10:42:35.409Z,11.60
2022-11-03T10:45:21.914Z,11.25
2022-11-03T10:48:05.849Z,11.26
2022-11-03T10:50:35.821Z,11.21
2022-11-03T10:53:05.862Z,11.19
2022-11-03T10:55:35.748Z,11.13
2022-11-03T10:58:06.872Z,11.01
2022-11-03T11:00:35.762Z,11.17
2022-11-03T11:03:08.157Z,11.24
2022-11-03T11:05:47.472Z,11.26
2022-11-03T11:08:23.765Z,11.26
2022-11-03T11:10:55.289Z,11.23
2022-11-03T11:13:27.611Z,11.32
2022-11-03T11:16:02.905Z,11.25
2022-11-03T11:18:32.380Z,11.28
2022-11-03T11:21:24.884Z,11.04
2022-11-03T11:23:54.401Z,11.08
2022-11-03T11:26:26.006Z,11.19
2022-11-03T11:29:11.268Z,11.33
2022-11-03T11:31:42.668Z,11.43
2022-11-03T11:34:17.457Z,11.57
2022-11-03T11:36:53.994Z,11.57
2022-11-03T11:39:31.253Z,11.54
2022-11-03T11:42:17.627Z,11.11
2022-11-03T11:44:46.061Z,11.33
2022-11-03T11:47:29.710Z,10.97
2022-11-03T11:50:10.933Z,11.04
2022-11-03T11:52:50.796Z,11.21
2022-11-03T11:55:44.203Z,10.91
2022-11-03T11:58:30.617Z,10.95
2022-11-03T12:01:31.586Z,10.92
2022-11-03T12:07:14.258Z,11.19
2022-11-03T12:09:45.463Z,11.13
2022-11-03T12:12:34.439Z,11.20
2022-11-03T12:15:04.400Z,10.92
2022-11-03T12:17:34.444Z,11.12
2022-11-03T12:20:44.367Z,11.11
2022-11-03T12:23:41.302Z,11.27
2022-11-03T12:26:27.912Z,11.44
2022-11-03T12:28:57.599Z,11.17
2022-11-03T12:31:26.307Z,11.20
2022-11-03T12:33:55.777Z,11.48
2022-11-03T12:36:24.606Z,11.48
2022-11-03T12:38:54.231Z,11.41
2022-11-03T12:41:24.573Z,11.47
2022-11-03T12:43:57.573Z,11.32
2022-11-03T12:46:26.289Z,11.43
2022-11-03T12:48:56.172Z,11.27
2022-11-03T12:51:26.382Z,11.39
2022-11-03T12:53:55.076Z,11.25
2022-11-03T12:56:25.127Z,11.28
2022-11-03T12:58:54.730Z,11.10
2022-11-03T13:01:24.441Z,10.89
2022-11-03T13:03:54.039Z,10.96
2022-11-03T13:06:23.522Z,10.80
2022-11-03T13:08:53.696Z,10.94
2022-11-03T13:11:41.976Z,10.98
2022-11-03T13:14:12.459Z,10.72
2022-11-03T13:16:41.988Z,10.73
2022-11-03T13:19:11.532Z,10.73
2022-11-03T13:21:41.100Z,10.62
2022-11-03T13:24:10.796Z,10.17
2022-11-03T13:26:40.337Z,10.24
2022-11-03T13:29:09.886Z,10.19
2022-11-03T13:31:39.549Z,10.01
2022-11-03T13:34:09.018Z,10.00
2022-11-03T13:36:38.468Z,10.11
2022-11-03T13:39:08.105Z,10.19
2022-11-03T13:41:37.637Z,10.15
2022-11-03T13:44:08.846Z,9.95
2022-11-03T13:46:38.466Z,10.06
2022-11-03T13:49:52.206Z,10.13
2022-11-03T13:51:57.557Z,10.11
2022-11-03T14:00:45.300Z,9.95
2022-11-03T14:06:44.823Z,10.02
2022-11-03T14:12:44.023Z,9.40
2022-11-03T14:15:34.794Z,9.59
2022-11-03T14:18:04.439Z,9.56
2022-11-03T14:20:33.941Z,9.69
2022-11-03T14:23:03.742Z,9.75
2022-11-03T14:25:33.711Z,9.49
2022-11-03T14:28:03.905Z,9.45
2022-11-03T14:30:33.510Z,9.64
2022-11-03T14:33:03.036Z,9.70
2022-11-03T14:35:32.601Z,9.79
2022-11-03T14:38:02.206Z,9.92
2022-11-03T14:40:50.100Z,9.98
2022-11-03T14:43:19.728Z,9.80
2022-11-03T14:45:49.323Z,9.97
2022-11-03T14:48:18.912Z,10.01
2022-11-03T14:50:48.518Z,9.87
2022-11-03T14:53:20.048Z,9.96
2022-11-03T14:55:49.715Z,9.92
2022-11-03T14:58:20.941Z,9.96
2022-11-03T15:00:50.539Z,9.94
2022-11-03T15:03:19.407Z,9.90
2022-11-03T15:05:49.653Z,10.04
2022-11-03T15:08:19.858Z,9.75
2022-11-03T15:10:50.143Z,10.08
2022-11-03T15:13:19.831Z,9.88
2022-11-03T15:15:49.635Z,10.06
2022-11-03T15:18:18.718Z,10.08
2022-11-03T15:20:48.554Z,10.09
2022-11-03T15:26:10.610Z,10.00
2022-11-03T15:28:43.682Z,10.06
2022-11-03T15:31:13.875Z,10.04
2022-11-03T15:33:43.425Z,10.03
2022-11-03T15:36:12.148Z,10.01
2022-11-03T15:38:41.886Z,10.10
2022-11-03T15:41:17.476Z,10.06
2022-11-03T15:43:51.217Z,10.16
2022-11-03T15:46:20.981Z,10.16
2022-11-03T15:48:50.846Z,10.07
2022-11-03T15:51:19.568Z,10.17
2022-11-03T15:53:52.304Z,10.15
2022-11-03T15:56:27.861Z,10.27
2022-11-03T15:58:57.524Z,10.31
2022-11-03T16:01:29.690Z,10.38
2022-11-03T16:03:59.986Z,10.47
2022-11-03T16:06:53.898Z,10.38
2022-11-03T16:09:18.437Z,10.53
2022-11-03T16:11:48.017Z,10.51
2022-11-03T16:14:18.340Z,10.57
2022-11-03T16:16:48.041Z,10.55
2022-11-03T16:19:18.313Z,10.51
2022-11-03T16:21:46.179Z,10.62
2022-11-03T16:24:15.926Z,10.73
2022-11-03T16:26:45.925Z,10.60
2022-11-03T16:29:13.829Z,10.60
2022-11-03T16:31:44.425Z,10.68
2022-11-03T16:34:16.567Z,10.68
2022-11-03T16:36:48.302Z,10.68
2022-11-03T16:39:16.252Z,10.66
2022-11-03T16:41:45.827Z,10.58
2022-11-03T16:44:15.382Z,10.62
2022-11-03T16:46:44.965Z,10.63
2022-11-03T16:49:12.725Z,10.67
2022-11-03T16:51:46.321Z,10.64
2022-11-03T16:54:16.043Z,10.70
2022-11-03T16:56:49.428Z,10.63
2022-11-03T16:59:23.556Z,10.74
2022-11-03T17:01:53.857Z,10.67
2022-11-03T17:04:21.936Z,10.67
2022-11-03T17:06:51.628Z,10.71
2022-11-03T17:09:22.270Z,10.69
2022-11-03T17:11:51.802Z,10.84
2022-11-03T17:14:21.438Z,10.90
2022-11-03T17:16:51.062Z,10.95
2022-11-03T17:19:19.799Z,10.89
2022-11-03T17:21:49.342Z,10.86
2022-11-03T17:24:17.300Z,10.84
2022-11-03T17:27:20.366Z,10.88
2022-11-03T17:30:01.623Z,10.89
2022-11-03T17:32:42.291Z,10.87
2022-11-03T17:35:42.179Z,10.93
2022-11-03T17:38:17.688Z,10.83
2022-11-03T17:40:48.369Z,10.92
2022-11-03T17:43:27.548Z,10.89
2022-11-03T17:45:58.999Z,10.84
2022-11-03T17:48:30.367Z,10.87
2022-11-03T17:51:05.386Z,10.88
2022-11-03T17:53:34.587Z,11.04
2022-11-03T17:56:28.497Z,10.99
2022-11-03T17:58:53.787Z,11.02
2022-11-03T18:01:27.655Z,10.96
2022-11-03T18:03:55.724Z,10.95
2022-11-03T18:06:23.494Z,10.94
2022-11-03T18:08:53.258Z,10.93
2022-11-03T18:11:47.894Z,11.09
2022-11-03T18:14:21.215Z,11.19
2022-11-03T18:16:52.502Z,11.02
2022-11-03T18:19:20.707Z,11.16
2022-11-03T18:21:50.348Z,11.08
2022-11-03T18:24:21.946Z,11.10
2022-11-03T18:26:49.947Z,11.06
2022-11-03T18:29:19.769Z,11.04
2022-11-03T18:31:50.873Z,11.05
2022-11-03T18:34:25.414Z,11.06
2022-11-03T18:36:54.598Z,10.93
2022-11-03T18:39:27.629Z,11.06
2022-11-03T18:41:57.194Z,11.04
2022-11-03T18:44:30.338Z,10.98
2022-11-03T18:46:59.940Z,11.01
2022-11-03T18:49:34.080Z,10.91
2022-11-03T18:52:14.871Z,10.81
2022-11-03T18:54:53.969Z,10.84
2022-11-03T18:57:27.899Z,10.85
2022-11-03T18:59:57.907Z,10.77
2022-11-03T19:02:31.060Z,10.82
2022-11-03T19:05:00.575Z,10.91
2022-11-03T19:07:33.201Z,10.85
2022-11-03T19:10:15.667Z,10.73
2022-11-03T19:12:46.761Z,10.75
2022-11-03T19:15:24.928Z,10.72
2022-11-03T19:17:58.021Z,10.87
2022-11-03T19:20:26.625Z,10.88
2022-11-03T19:22:56.457Z,10.84
2022-11-03T19:25:26.236Z,10.75
2022-11-03T19:27:55.777Z,10.85
2022-11-03T19:30:24.439Z,10.90
2022-11-03T19:32:56.855Z,10.90
2022-11-03T19:35:36.245Z,10.91
2022-11-03T19:38:16.479Z,10.91
2022-11-03T19:41:05.960Z,10.82
2022-11-03T19:43:35.531Z,10.90
2022-11-03T19:46:06.097Z,10.86
2022-11-03T19:48:35.868Z,10.95
2022-11-03T19:51:07.633Z,10.84
2022-11-03T19:53:37.736Z,11.00
2022-11-03T19:56:09.271Z,10.92
2022-11-03T19:58:40.413Z,10.80
2022-11-03T20:01:10.028Z,10.86
2022-11-03T20:03:39.933Z,10.84
2022-11-03T20:06:09.527Z,10.87
2022-11-03T20:08:38.731Z,10.88
2022-11-03T20:11:07.753Z,10.80
2022-11-03T20:13:43.365Z,10.68
2022-11-03T20:16:17.832Z,10.62
2022-11-03T20:18:48.963Z,10.64
2022-11-03T20:21:20.342Z,10.63
2022-11-03T20:23:51.046Z,10.53
2022-11-03T20:26:23.491Z,10.49
2022-11-03T20:28:57.680Z,10.60
2022-11-03T20:31:27.262Z,10.57
2022-11-03T20:33:56.797Z,10.55
2022-11-03T20:36:27.348Z,10.54
2022-11-03T20:38:59.686Z,10.47
2022-11-03T20:41:32.460Z,10.46
2022-11-03T20:44:05.062Z,10.51
2022-11-03T20:46:34.829Z,10.44
2022-11-03T20:49:07.590Z,10.47
2022-11-03T20:51:44.870Z,10.44
2022-11-03T20:54:21.069Z,10.46
2022-11-03T20:56:51.061Z,10.39
2022-11-03T20:59:24.866Z,10.44
2022-11-03T21:01:54.656Z,10.41
2022-11-03T21:04:22.739Z,10.44
2022-11-03T21:06:53.871Z,10.33
2022-11-03T21:09:22.738Z,10.29
2022-11-03T21:11:53.887Z,10.25
2022-11-03T21:14:31.641Z,10.17
2022-11-03T21:17:22.721Z,10.05
2022-11-03T21:20:09.629Z,10.00
2022-11-03T21:22:52.807Z,9.97
2022-11-03T21:25:25.280Z,9.89
2022-11-03T21:27:56.259Z,9.80
2022-11-03T21:30:25.764Z,9.91
2022-11-03T21:32:55.330Z,9.89
2022-11-03T21:35:27.853Z,9.88
2022-11-03T21:37:57.452Z,9.85
2022-11-03T21:40:27.169Z,9.96
2022-11-03T21:43:15.417Z,10.08
2022-11-03T21:45:45.501Z,9.96
2022-11-03T21:48:33.499Z,9.88
2022-11-03T21:51:03.538Z,9.95
2022-11-03T21:53:33.262Z,9.92
2022-11-03T21:56:03.066Z,9.91
2022-11-03T21:58:31.124Z,9.86
2022-11-03T22:01:05.346Z,9.86
2022-11-03T22:03:39.680Z,9.99
2022-11-03T22:06:11.840Z,9.93
2022-11-03T22:08:45.293Z,10.05
2022-11-03T22:11:24.543Z,9.93
2022-11-03T22:14:00.952Z,9.96
2022-11-03T22:16:38.040Z,9.89
2022-11-03T22:19:40.302Z,9.90
2022-11-03T22:22:34.076Z,10.16
2022-11-03T22:25:27.620Z,9.95
2022-11-03T22:27:56.489Z,9.83
2022-11-03T22:30:42.623Z,9.87
2022-11-03T22:33:13.681Z,9.96
2022-11-03T22:36:01.918Z,9.97
2022-11-03T22:38:50.155Z,9.86
2022-11-03T22:41:38.229Z,9.96
2022-11-03T22:44:26.332Z,10.02
2022-11-03T22:46:55.935Z,10.10
2022-11-03T22:49:25.969Z,10.02
2022-11-03T22:51:55.503Z,10.10
2022-11-03T22:54:24.990Z,10.26
2022-11-03T22:56:54.651Z,10.09
2022-11-03T22:59:24.424Z,9.97
2022-11-03T23:01:54.262Z,10.07
2022-11-03T23:04:26.575Z,10.07
2022-11-03T23:06:58.783Z,10.13
2022-11-03T23:09:28.488Z,10.02
2022-11-03T23:11:57.925Z,10.21
2022-11-03T23:14:47.525Z,10.16
2022-11-03T23:17:17.154Z,10.16
2022-11-03T23:20:04.984Z,10.14
2022-11-03T23:22:34.445Z,10.19
2022-11-03T23:25:04.235Z,10.16
2022-11-03T23:27:32.910Z,10.21
2022-11-03T23:30:04.841Z,10.09
2022-11-03T23:32:33.521Z,10.23
2022-11-03T23:35:04.679Z,10.21
2022-11-03T23:37:33.426Z,10.09
2022-11-03T23:40:03.025Z,10.10
2022-11-03T23:42:32.738Z,10.07
2022-11-03T23:45:20.777Z,10.03
2022-11-03T23:48:09.130Z,10.17
2022-11-03T23:50:39.847Z,10.01
2022-11-03T23:53:08.537Z,10.08
2022-11-03T23:55:56.801Z,10.10
2022-11-03T23:58:26.303Z,10.16
